sensor_id;sensor_type;location;lat;lon;timestamp;P1;durP1;ratioP1;P2;durP2;ratioP2
5878;SDS011;2965;42.640;23.370;2023-06-10T04:02:18;16.63;;;8.47;;
5878;SDS011;2965;42.640;23.370;2023-06-10T04:04:44;14.07;;;9.67;;
5878;SDS011;2965;42.640;23.370;2023-06-10T04:07:09;15.93;;;11.10;;
5878;SDS011;2965;42.640;23.370;2023-06-10T04:09:36;11.10;;;10.00;;
5878;SDS011;2965;42.640;23.370;2023-06-10T04:12:01;12.33;;;11.17;;
5878;SDS011;2965;42.640;23.370;2023-06-10T04:14:27;9.87;;;8.70;;
5878;SDS011;2965;42.640;23.370;2023-06-10T04:16:53;10.80;;;8.93;;
5878;SDS011;2965;42.640;23.370;2023-06-10T04:19:18;12.33;;;8.77;;
5878;SDS011;2965;42.640;23.370;2023-06-10T04:21:43;9.53;;;8.50;;
5878;SDS011;2965;42.640;23.370;2023-06-10T04:24:09;8.47;;;7.97;;
5878;SDS011;2965;42.640;23.370;2023-06-10T04:26:35;14.37;;;9.60;;
5878;SDS011;2965;42.640;23.370;2023-06-10T04:29:01;11.17;;;7.80;;
5878;SDS011;2965;42.640;23.370;2023-06-10T04:31:26;9.50;;;8.70;;
5878;SDS011;2965;42.640;23.370;2023-06-10T04:33:52;13.80;;;11.83;;
5878;SDS011;2965;42.640;23.370;2023-06-10T04:36:18;15.03;;;12.20;;
5878;SDS011;2965;42.640;23.370;2023-06-10T04:38:44;13.87;;;12.63;;
5878;SDS011;2965;42.640;23.370;2023-06-10T04:41:09;13.57;;;12.17;;
5878;SDS011;2965;42.640;23.370;2023-06-10T04:43:34;15.23;;;11.50;;
5878;SDS011;2965;42.640;23.370;2023-06-10T04:46:00;14.30;;;12.83;;
5878;SDS011;2965;42.640;23.370;2023-06-10T04:48:25;15.83;;;12.73;;
5878;SDS011;2965;42.640;23.370;2023-06-10T04:50:50;17.77;;;11.43;;
5878;SDS011;2965;42.640;23.370;2023-06-10T04:53:16;16.40;;;12.87;;
5878;SDS011;2965;42.640;23.370;2023-06-10T04:55:42;13.70;;;12.20;;
5878;SDS011;2965;42.640;23.370;2023-06-10T04:58:08;22.27;;;12.40;;
5878;SDS011;2965;42.640;23.370;2023-06-10T05:00:34;17.00;;;12.73;;
5878;SDS011;2965;42.640;23.370;2023-06-10T05:02:59;16.30;;;12.43;;
5878;SDS011;2965;42.640;23.370;2023-06-10T05:05:25;14.10;;;12.37;;
5878;SDS011;2965;42.640;23.370;2023-06-10T05:07:50;17.03;;;12.93;;
5878;SDS011;2965;42.640;23.370;2023-06-10T05:10:16;13.30;;;11.90;;
5878;SDS011;2965;42.640;23.370;2023-06-10T05:12:41;16.80;;;12.40;;
5878;SDS011;2965;42.640;23.370;2023-06-10T05:15:07;13.03;;;11.83;;
5878;SDS011;2965;42.640;23.370;2023-06-10T05:17:33;18.70;;;12.20;;
5878;SDS011;2965;42.640;23.370;2023-06-10T05:19:59;12.57;;;11.30;;
5878;SDS011;2965;42.640;23.370;2023-06-10T05:22:25;12.93;;;11.73;;
5878;SDS011;2965;42.640;23.370;2023-06-10T05:24:52;16.03;;;11.80;;
5878;SDS011;2965;42.640;23.370;2023-06-10T05:27:18;20.67;;;12.20;;
5878;SDS011;2965;42.640;23.370;2023-06-10T05:29:43;16.10;;;12.47;;
5878;SDS011;2965;42.640;23.370;2023-06-10T05:32:10;12.83;;;11.40;;
5878;SDS011;2965;42.640;23.370;2023-06-10T05:34:36;13.00;;;11.80;;
5878;SDS011;2965;42.640;23.370;2023-06-10T05:37:01;15.00;;;11.63;;
5878;SDS011;2965;42.640;23.370;2023-06-10T05:39:27;22.30;;;13.43;;
5878;SDS011;2965;42.640;23.370;2023-06-10T05:41:52;11.07;;;9.77;;
5878;SDS011;2965;42.640;23.370;2023-06-10T05:44:18;14.27;;;10.80;;
5878;SDS011;2965;42.640;23.370;2023-06-10T05:46:43;14.43;;;13.03;;
5878;SDS011;2965;42.640;23.370;2023-06-10T05:49:11;12.67;;;11.57;;
5878;SDS011;2965;42.640;23.370;2023-06-10T05:51:37;17.97;;;13.10;;
5878;SDS011;2965;42.640;23.370;2023-06-10T05:54:03;15.50;;;13.53;;
5878;SDS011;2965;42.640;23.370;2023-06-10T05:56:29;22.10;;;13.60;;
5878;SDS011;2965;42.640;23.370;2023-06-10T05:58:55;19.23;;;15.27;;
5878;SDS011;2965;42.640;23.370;2023-06-10T06:01:20;24.43;;;15.20;;
5878;SDS011;2965;42.640;23.370;2023-06-10T06:03:46;24.03;;;17.03;;
5878;SDS011;2965;42.640;23.370;2023-06-10T06:06:11;23.40;;;18.27;;
5878;SDS011;2965;42.640;23.370;2023-06-10T06:08:37;21.60;;;17.77;;
5878;SDS011;2965;42.640;23.370;2023-06-10T06:11:02;24.40;;;17.93;;
5878;SDS011;2965;42.640;23.370;2023-06-10T06:13:27;27.23;;;18.50;;
5878;SDS011;2965;42.640;23.370;2023-06-10T06:15:53;26.07;;;18.10;;
5878;SDS011;2965;42.640;23.370;2023-06-10T06:18:18;24.10;;;18.70;;
5878;SDS011;2965;42.640;23.370;2023-06-10T06:20:44;30.30;;;18.80;;
5878;SDS011;2965;42.640;23.370;2023-06-10T06:23:09;29.77;;;19.20;;
5878;SDS011;2965;42.640;23.370;2023-06-10T06:25:35;32.00;;;21.77;;
5878;SDS011;2965;42.640;23.370;2023-06-10T06:28:01;26.97;;;19.43;;
5878;SDS011;2965;42.640;23.370;2023-06-10T06:30:27;28.77;;;20.53;;
5878;SDS011;2965;42.640;23.370;2023-06-10T06:32:52;22.30;;;17.60;;
5878;SDS011;2965;42.640;23.370;2023-06-10T06:35:17;29.67;;;20.87;;
5878;SDS011;2965;42.640;23.370;2023-06-10T06:37:43;26.17;;;20.60;;
5878;SDS011;2965;42.640;23.370;2023-06-10T06:40:10;34.03;;;21.13;;
5878;SDS011;2965;42.640;23.370;2023-06-10T06:42:36;29.47;;;20.83;;
5878;SDS011;2965;42.640;23.370;2023-06-10T06:45:01;23.87;;;19.73;;
5878;SDS011;2965;42.640;23.370;2023-06-10T06:47:27;29.73;;;19.53;;
5878;SDS011;2965;42.640;23.370;2023-06-10T06:49:52;26.57;;;19.53;;
5878;SDS011;2965;42.640;23.370;2023-06-10T06:52:18;20.27;;;18.00;;
5878;SDS011;2965;42.640;23.370;2023-06-10T06:54:44;27.47;;;19.43;;
5878;SDS011;2965;42.640;23.370;2023-06-10T06:57:09;30.63;;;17.70;;
5878;SDS011;2965;42.640;23.370;2023-06-10T06:59:35;23.43;;;16.80;;
5878;SDS011;2965;42.640;23.370;2023-06-10T07:02:00;24.47;;;17.57;;
5878;SDS011;2965;42.640;23.370;2023-06-10T07:04:25;19.00;;;16.63;;
5878;SDS011;2965;42.640;23.370;2023-06-10T07:06:51;22.90;;;17.63;;
5878;SDS011;2965;42.640;23.370;2023-06-10T07:09:16;32.60;;;16.80;;
5878;SDS011;2965;42.640;23.370;2023-06-10T07:11:42;26.10;;;16.50;;
5878;SDS011;2965;42.640;23.370;2023-06-10T07:14:07;31.03;;;17.13;;
5878;SDS011;2965;42.640;23.370;2023-06-10T07:16:32;24.97;;;16.13;;
5878;SDS011;2965;42.640;23.370;2023-06-10T07:18:59;22.37;;;13.63;;
5878;SDS011;2965;42.640;23.370;2023-06-10T07:21:24;24.20;;;11.27;;
5878;SDS011;2965;42.640;23.370;2023-06-10T07:23:49;17.20;;;12.50;;
5878;SDS011;2965;42.640;23.370;2023-06-10T07:26:18;15.70;;;11.23;;
5878;SDS011;2965;42.640;23.370;2023-06-10T07:28:43;12.73;;;9.50;;
5878;SDS011;2965;42.640;23.370;2023-06-10T07:31:09;13.47;;;9.30;;
5878;SDS011;2965;42.640;23.370;2023-06-10T07:33:36;15.47;;;9.70;;
5878;SDS011;2965;42.640;23.370;2023-06-10T07:36:03;12.30;;;11.17;;
5878;SDS011;2965;42.640;23.370;2023-06-10T07:38:28;12.67;;;11.20;;
5878;SDS011;2965;42.640;23.370;2023-06-10T07:40:53;12.67;;;11.40;;
5878;SDS011;2965;42.640;23.370;2023-06-10T07:43:19;19.27;;;10.37;;
5878;SDS011;2965;42.640;23.370;2023-06-10T07:45:44;19.63;;;11.03;;
5878;SDS011;2965;42.640;23.370;2023-06-10T07:48:10;16.70;;;9.87;;
5878;SDS011;2965;42.640;23.370;2023-06-10T07:50:36;16.23;;;8.40;;
5878;SDS011;2965;42.640;23.370;2023-06-10T07:53:02;9.10;;;8.30;;
5878;SDS011;2965;42.640;23.370;2023-06-10T07:55:28;11.10;;;9.07;;
5878;SDS011;2965;42.640;23.370;2023-06-10T07:57:53;14.93;;;9.80;;
5878;SDS011;2965;42.640;23.370;2023-06-10T08:00:19;13.30;;;9.90;;
5878;SDS011;2965;42.640;23.370;2023-06-10T08:02:45;10.53;;;9.43;;
5878;SDS011;2965;42.640;23.370;2023-06-10T08:05:11;8.97;;;8.17;;
5878;SDS011;2965;42.640;23.370;2023-06-10T08:07:36;11.13;;;8.67;;
5878;SDS011;2965;42.640;23.370;2023-06-10T08:10:02;8.00;;;7.17;;
5878;SDS011;2965;42.640;23.370;2023-06-10T08:12:27;7.13;;;6.63;;
5878;SDS011;2965;42.640;23.370;2023-06-10T08:14:53;7.90;;;7.30;;
5878;SDS011;2965;42.640;23.370;2023-06-10T08:17:20;8.87;;;8.07;;
5878;SDS011;2965;42.640;23.370;2023-06-10T08:19:45;9.10;;;8.40;;
5878;SDS011;2965;42.640;23.370;2023-06-10T08:22:10;18.90;;;9.27;;
5878;SDS011;2965;42.640;23.370;2023-06-10T08:24:36;14.10;;;9.43;;
5878;SDS011;2965;42.640;23.370;2023-06-10T08:27:01;9.30;;;8.33;;
5878;SDS011;2965;42.640;23.370;2023-06-10T08:29:27;18.50;;;8.47;;
5878;SDS011;2965;42.640;23.370;2023-06-10T08:31:52;10.30;;;7.93;;
5878;SDS011;2965;42.640;23.370;2023-06-10T08:34:18;13.70;;;8.50;;
5878;SDS011;2965;42.640;23.370;2023-06-10T08:36:43;14.17;;;9.20;;
5878;SDS011;2965;42.640;23.370;2023-06-10T08:39:10;8.60;;;7.33;;
5878;SDS011;2965;42.640;23.370;2023-06-10T08:41:36;14.23;;;8.43;;
5878;SDS011;2965;42.640;23.370;2023-06-10T08:46:45;5.80;;;5.27;;
5878;SDS011;2965;42.640;23.370;2023-06-10T08:49:14;5.17;;;4.77;;
5878;SDS011;2965;42.640;23.370;2023-06-10T08:51:48;5.30;;;4.90;;
5878;SDS011;2965;42.640;23.370;2023-06-10T08:54:17;5.73;;;5.40;;
5878;SDS011;2965;42.640;23.370;2023-06-10T08:56:48;5.87;;;5.33;;
5878;SDS011;2965;42.640;23.370;2023-06-10T08:59:18;8.33;;;5.80;;
5878;SDS011;2965;42.640;23.370;2023-06-10T09:01:44;5.10;;;4.90;;
5878;SDS011;2965;42.640;23.370;2023-06-10T09:04:11;5.37;;;5.00;;
5878;SDS011;2965;42.640;23.370;2023-06-10T09:06:37;5.93;;;5.63;;
5878;SDS011;2965;42.640;23.370;2023-06-10T09:09:04;5.17;;;4.87;;
5878;SDS011;2965;42.640;23.370;2023-06-10T09:11:31;7.47;;;6.10;;
5878;SDS011;2965;42.640;23.370;2023-06-10T09:13:56;6.67;;;5.90;;
5878;SDS011;2965;42.640;23.370;2023-06-10T09:16:22;6.67;;;6.17;;
5878;SDS011;2965;42.640;23.370;2023-06-10T09:18:55;5.73;;;5.23;;
5878;SDS011;2965;42.640;23.370;2023-06-10T09:21:24;6.10;;;5.60;;
5878;SDS011;2965;42.640;23.370;2023-06-10T09:23:50;6.17;;;5.67;;
5878;SDS011;2965;42.640;23.370;2023-06-10T09:26:16;5.03;;;4.73;;
5878;SDS011;2965;42.640;23.370;2023-06-10T09:28:48;7.43;;;4.90;;
5878;SDS011;2965;42.640;23.370;2023-06-10T09:31:17;5.00;;;4.67;;
5878;SDS011;2965;42.640;23.370;2023-06-10T09:33:46;5.40;;;5.00;;
5878;SDS011;2965;42.640;23.370;2023-06-10T09:36:20;4.57;;;4.27;;
5878;SDS011;2965;42.640;23.370;2023-06-10T09:38:47;4.20;;;4.10;;
5878;SDS011;2965;42.640;23.370;2023-06-10T09:41:15;4.20;;;4.00;;
5878;SDS011;2965;42.640;23.370;2023-06-10T09:43:42;4.93;;;4.07;;
5878;SDS011;2965;42.640;23.370;2023-06-10T09:46:18;4.87;;;4.67;;
5878;SDS011;2965;42.640;23.370;2023-06-10T09:48:47;3.97;;;3.77;;
5878;SDS011;2965;42.640;23.370;2023-06-10T09:51:13;4.10;;;3.90;;
5878;SDS011;2965;42.640;23.370;2023-06-10T09:53:39;7.30;;;3.87;;
5878;SDS011;2965;42.640;23.370;2023-06-10T09:56:05;4.27;;;4.07;;
5878;SDS011;2965;42.640;23.370;2023-06-10T09:58:39;4.50;;;4.30;;
5878;SDS011;2965;42.640;23.370;2023-06-10T10:01:09;4.70;;;4.40;;
5878;SDS011;2965;42.640;23.370;2023-06-10T10:03:56;4.43;;;4.23;;
5878;SDS011;2965;42.640;23.370;2023-06-10T10:06:21;4.40;;;4.30;;
5878;SDS011;2965;42.640;23.370;2023-06-10T10:08:47;5.80;;;4.50;;
5878;SDS011;2965;42.640;23.370;2023-06-10T10:11:14;4.13;;;3.90;;
5878;SDS011;2965;42.640;23.370;2023-06-10T10:13:48;5.07;;;4.67;;
5878;SDS011;2965;42.640;23.370;2023-06-10T10:16:15;4.90;;;4.80;;
5878;SDS011;2965;42.640;23.370;2023-06-10T10:18:43;5.73;;;5.10;;
5878;SDS011;2965;42.640;23.370;2023-06-10T10:21:15;5.60;;;5.20;;
5878;SDS011;2965;42.640;23.370;2023-06-10T10:23:52;4.10;;;3.90;;
5878;SDS011;2965;42.640;23.370;2023-06-10T10:26:18;7.73;;;4.20;;
5878;SDS011;2965;42.640;23.370;2023-06-10T10:28:48;5.33;;;4.50;;
5878;SDS011;2965;42.640;23.370;2023-06-10T10:31:21;4.27;;;4.03;;
5878;SDS011;2965;42.640;23.370;2023-06-10T10:33:59;6.97;;;4.83;;
5878;SDS011;2965;42.640;23.370;2023-06-10T10:36:27;4.23;;;4.13;;
5878;SDS011;2965;42.640;23.370;2023-06-10T10:38:52;5.30;;;4.90;;
5878;SDS011;2965;42.640;23.370;2023-06-10T10:41:19;12.23;;;5.13;;
5878;SDS011;2965;42.640;23.370;2023-06-10T10:43:46;5.67;;;5.17;;
5878;SDS011;2965;42.640;23.370;2023-06-10T10:46:16;4.70;;;4.50;;
5878;SDS011;2965;42.640;23.370;2023-06-10T10:48:42;4.90;;;4.70;;
5878;SDS011;2965;42.640;23.370;2023-06-10T10:51:09;4.60;;;4.40;;
5878;SDS011;2965;42.640;23.370;2023-06-10T10:53:39;4.80;;;4.60;;
5878;SDS011;2965;42.640;23.370;2023-06-10T10:56:05;4.43;;;4.23;;
5878;SDS011;2965;42.640;23.370;2023-06-10T10:58:40;4.53;;;4.33;;
5878;SDS011;2965;42.640;23.370;2023-06-10T11:01:12;4.30;;;4.03;;
5878;SDS011;2965;42.640;23.370;2023-06-10T11:03:45;4.43;;;4.33;;
5878;SDS011;2965;42.640;23.370;2023-06-10T11:06:14;4.83;;;4.57;;
5878;SDS011;2965;42.640;23.370;2023-06-10T11:11:25;5.53;;;5.03;;
5878;SDS011;2965;42.640;23.370;2023-06-10T11:16:28;4.40;;;4.00;;
5878;SDS011;2965;42.640;23.370;2023-06-10T11:18:54;4.80;;;4.60;;
5878;SDS011;2965;42.640;23.370;2023-06-10T11:21:20;4.73;;;4.53;;
5878;SDS011;2965;42.640;23.370;2023-06-10T11:23:47;5.43;;;5.03;;
5878;SDS011;2965;42.640;23.370;2023-06-10T11:31:22;5.70;;;5.10;;
5878;SDS011;2965;42.640;23.370;2023-06-10T11:33:58;6.20;;;5.63;;
5878;SDS011;2965;42.640;23.370;2023-06-10T11:36:28;6.90;;;4.70;;
5878;SDS011;2965;42.640;23.370;2023-06-10T11:38:58;4.90;;;4.70;;
5878;SDS011;2965;42.640;23.370;2023-06-10T11:41:25;5.07;;;4.80;;
5878;SDS011;2965;42.640;23.370;2023-06-10T11:43:52;5.00;;;4.70;;
5878;SDS011;2965;42.640;23.370;2023-06-10T11:46:18;4.50;;;4.20;;
5878;SDS011;2965;42.640;23.370;2023-06-10T11:48:50;4.80;;;4.50;;
5878;SDS011;2965;42.640;23.370;2023-06-10T11:51:16;4.63;;;4.43;;
5878;SDS011;2965;42.640;23.370;2023-06-10T11:53:45;4.53;;;4.33;;
5878;SDS011;2965;42.640;23.370;2023-06-10T12:19:24;4.60;;;4.50;;
5878;SDS011;2965;42.640;23.370;2023-06-10T12:21:49;5.10;;;4.83;;
5878;SDS011;2965;42.640;23.370;2023-06-10T12:24:15;6.97;;;5.20;;
5878;SDS011;2965;42.640;23.370;2023-06-10T12:26:42;5.27;;;4.97;;
5878;SDS011;2965;42.640;23.370;2023-06-10T12:29:19;5.77;;;5.37;;
5878;SDS011;2965;42.640;23.370;2023-06-10T12:34:19;4.60;;;4.40;;
5878;SDS011;2965;42.640;23.370;2023-06-10T12:36:51;4.63;;;4.43;;
5878;SDS011;2965;42.640;23.370;2023-06-10T12:39:17;4.77;;;4.57;;
5878;SDS011;2965;42.640;23.370;2023-06-10T12:41:49;5.27;;;5.03;;
5878;SDS011;2965;42.640;23.370;2023-06-10T12:44:16;5.37;;;4.97;;
5878;SDS011;2965;42.640;23.370;2023-06-10T12:46:41;4.20;;;4.10;;
5878;SDS011;2965;42.640;23.370;2023-06-10T12:49:06;4.53;;;4.13;;
5878;SDS011;2965;42.640;23.370;2023-06-10T12:51:32;4.60;;;4.20;;
5878;SDS011;2965;42.640;23.370;2023-06-10T12:53:59;4.30;;;4.10;;
5878;SDS011;2965;42.640;23.370;2023-06-10T12:56:25;4.67;;;4.20;;
5878;SDS011;2965;42.640;23.370;2023-06-10T12:58:50;4.67;;;4.47;;
5878;SDS011;2965;42.640;23.370;2023-06-10T13:01:16;5.30;;;4.87;;
5878;SDS011;2965;42.640;23.370;2023-06-10T13:03:41;4.90;;;4.60;;
5878;SDS011;2965;42.640;23.370;2023-06-10T13:06:07;4.73;;;4.33;;
5878;SDS011;2965;42.640;23.370;2023-06-10T13:08:32;4.23;;;4.00;;
5878;SDS011;2965;42.640;23.370;2023-06-10T13:10:58;4.80;;;4.70;;
5878;SDS011;2965;42.640;23.370;2023-06-10T13:13:24;4.63;;;4.53;;
5878;SDS011;2965;42.640;23.370;2023-06-10T13:15:50;5.20;;;4.90;;
5878;SDS011;2965;42.640;23.370;2023-06-10T13:18:16;7.50;;;4.70;;
5878;SDS011;2965;42.640;23.370;2023-06-10T13:20:44;6.57;;;4.50;;
5878;SDS011;2965;42.640;23.370;2023-06-10T13:23:10;6.07;;;4.73;;
5878;SDS011;2965;42.640;23.370;2023-06-10T13:25:35;5.13;;;4.83;;
5878;SDS011;2965;42.640;23.370;2023-06-10T13:28:01;5.37;;;5.17;;
5878;SDS011;2965;42.640;23.370;2023-06-10T13:30:27;5.77;;;5.20;;
5878;SDS011;2965;42.640;23.370;2023-06-10T13:32:53;5.20;;;5.00;;
5878;SDS011;2965;42.640;23.370;2023-06-10T13:35:18;9.87;;;5.47;;
5878;SDS011;2965;42.640;23.370;2023-06-10T13:37:43;6.73;;;4.90;;
5878;SDS011;2965;42.640;23.370;2023-06-10T13:40:09;5.63;;;5.13;;
5878;SDS011;2965;42.640;23.370;2023-06-10T13:42:35;10.27;;;5.23;;
5878;SDS011;2965;42.640;23.370;2023-06-10T13:45:01;8.50;;;4.90;;
5878;SDS011;2965;42.640;23.370;2023-06-10T13:47:27;8.57;;;5.90;;
5878;SDS011;2965;42.640;23.370;2023-06-10T13:49:53;6.70;;;6.10;;
5878;SDS011;2965;42.640;23.370;2023-06-10T13:52:18;6.57;;;6.17;;
5878;SDS011;2965;42.640;23.370;2023-06-10T13:54:43;8.33;;;6.20;;
5878;SDS011;2965;42.640;23.370;2023-06-10T13:57:09;10.33;;;5.97;;
5878;SDS011;2965;42.640;23.370;2023-06-10T13:59:35;5.13;;;4.70;;
5878;SDS011;2965;42.640;23.370;2023-06-10T14:02:01;7.80;;;6.07;;
5878;SDS011;2965;42.640;23.370;2023-06-10T14:04:26;5.97;;;5.43;;
5878;SDS011;2965;42.640;23.370;2023-06-10T14:06:52;5.50;;;5.20;;
5878;SDS011;2965;42.640;23.370;2023-06-10T14:09:17;6.00;;;5.20;;
5878;SDS011;2965;42.640;23.370;2023-06-10T14:11:44;5.30;;;4.90;;
5878;SDS011;2965;42.640;23.370;2023-06-10T14:14:09;6.00;;;5.57;;
5878;SDS011;2965;42.640;23.370;2023-06-10T14:16:35;5.20;;;4.90;;
5878;SDS011;2965;42.640;23.370;2023-06-10T14:19:00;6.13;;;5.63;;
5878;SDS011;2965;42.640;23.370;2023-06-10T14:21:26;5.03;;;4.83;;
5878;SDS011;2965;42.640;23.370;2023-06-10T14:23:51;9.23;;;6.73;;
5878;SDS011;2965;42.640;23.370;2023-06-10T14:26:18;5.70;;;5.30;;
5878;SDS011;2965;42.640;23.370;2023-06-10T14:28:44;6.57;;;5.97;;
5878;SDS011;2965;42.640;23.370;2023-06-10T14:31:09;5.90;;;5.30;;
5878;SDS011;2965;42.640;23.370;2023-06-10T14:33:35;6.80;;;5.13;;
5878;SDS011;2965;42.640;23.370;2023-06-10T14:36:01;6.43;;;5.80;;
5878;SDS011;2965;42.640;23.370;2023-06-10T14:38:26;5.63;;;5.27;;
5878;SDS011;2965;42.640;23.370;2023-06-10T14:40:51;5.27;;;5.07;;
5878;SDS011;2965;42.640;23.370;2023-06-10T14:43:17;7.80;;;5.57;;
5878;SDS011;2965;42.640;23.370;2023-06-10T14:45:43;5.90;;;5.60;;
5878;SDS011;2965;42.640;23.370;2023-06-10T15:15:40;5.50;;;5.03;;
5878;SDS011;2965;42.640;23.370;2023-06-10T15:18:06;6.30;;;5.70;;
5878;SDS011;2965;42.640;23.370;2023-06-10T15:20:31;4.60;;;4.40;;
5878;SDS011;2965;42.640;23.370;2023-06-10T15:22:56;4.80;;;4.47;;
5878;SDS011;2965;42.640;23.370;2023-06-10T15:25:22;5.60;;;5.30;;
5878;SDS011;2965;42.640;23.370;2023-06-10T15:27:48;5.00;;;4.80;;
5878;SDS011;2965;42.640;23.370;2023-06-10T15:30:13;5.60;;;5.20;;
5878;SDS011;2965;42.640;23.370;2023-06-10T15:32:38;5.87;;;5.57;;
5878;SDS011;2965;42.640;23.370;2023-06-10T15:35:04;11.40;;;6.00;;
5878;SDS011;2965;42.640;23.370;2023-06-10T15:37:30;6.07;;;5.57;;
5878;SDS011;2965;42.640;23.370;2023-06-10T15:39:55;5.60;;;5.30;;
5878;SDS011;2965;42.640;23.370;2023-06-10T15:42:21;7.00;;;6.50;;
5878;SDS011;2965;42.640;23.370;2023-06-10T15:44:46;7.30;;;6.57;;
5878;SDS011;2965;42.640;23.370;2023-06-10T15:47:12;6.20;;;5.80;;
5878;SDS011;2965;42.640;23.370;2023-06-10T15:49:37;5.00;;;4.63;;
5878;SDS011;2965;42.640;23.370;2023-06-10T15:52:03;6.47;;;5.97;;
5878;SDS011;2965;42.640;23.370;2023-06-10T15:54:28;5.83;;;5.43;;
5878;SDS011;2965;42.640;23.370;2023-06-10T15:56:54;8.60;;;5.80;;
5878;SDS011;2965;42.640;23.370;2023-06-10T15:59:19;5.63;;;5.33;;
5878;SDS011;2965;42.640;23.370;2023-06-10T16:01:44;8.53;;;5.50;;
5878;SDS011;2965;42.640;23.370;2023-06-10T16:04:10;6.10;;;5.50;;
5878;SDS011;2965;42.640;23.370;2023-06-10T16:06:35;5.70;;;5.40;;
5878;SDS011;2965;42.640;23.370;2023-06-10T16:09:01;6.10;;;5.60;;
5878;SDS011;2965;42.640;23.370;2023-06-10T16:11:26;11.67;;;5.80;;
5878;SDS011;2965;42.640;23.370;2023-06-10T16:13:52;6.43;;;5.93;;
5878;SDS011;2965;42.640;23.370;2023-06-10T16:16:17;5.70;;;5.40;;
5878;SDS011;2965;42.640;23.370;2023-06-10T16:18:43;9.97;;;6.23;;
5878;SDS011;2965;42.640;23.370;2023-06-10T16:21:08;6.17;;;5.57;;
5878;SDS011;2965;42.640;23.370;2023-06-10T16:23:34;5.50;;;5.20;;
5878;SDS011;2965;42.640;23.370;2023-06-10T16:25:59;5.53;;;5.17;;
5878;SDS011;2965;42.640;23.370;2023-06-10T16:28:24;6.30;;;5.80;;
5878;SDS011;2965;42.640;23.370;2023-06-10T16:30:50;6.70;;;5.20;;
5878;SDS011;2965;42.640;23.370;2023-06-10T16:33:15;6.57;;;6.10;;
5878;SDS011;2965;42.640;23.370;2023-06-10T16:35:41;5.90;;;5.60;;
5878;SDS011;2965;42.640;23.370;2023-06-10T16:38:06;7.83;;;6.17;;
5878;SDS011;2965;42.640;23.370;2023-06-10T16:40:32;5.10;;;4.90;;
5878;SDS011;2965;42.640;23.370;2023-06-10T16:42:57;15.93;;;5.40;;
5878;SDS011;2965;42.640;23.370;2023-06-10T16:45:23;4.60;;;4.40;;
5878;SDS011;2965;42.640;23.370;2023-06-10T16:47:48;5.20;;;4.77;;
5878;SDS011;2965;42.640;23.370;2023-06-10T16:50:13;5.97;;;4.63;;
5878;SDS011;2965;42.640;23.370;2023-06-10T16:52:39;4.87;;;4.63;;
5878;SDS011;2965;42.640;23.370;2023-06-10T16:55:04;5.07;;;4.77;;
5878;SDS011;2965;42.640;23.370;2023-06-10T16:57:30;7.83;;;5.27;;
5878;SDS011;2965;42.640;23.370;2023-06-10T16:59:55;6.00;;;5.70;;
5878;SDS011;2965;42.640;23.370;2023-06-10T17:02:21;6.63;;;5.07;;
5878;SDS011;2965;42.640;23.370;2023-06-10T17:04:46;5.83;;;5.53;;
5878;SDS011;2965;42.640;23.370;2023-06-10T17:07:11;5.43;;;5.07;;
5878;SDS011;2965;42.640;23.370;2023-06-10T17:09:37;5.43;;;5.13;;
5878;SDS011;2965;42.640;23.370;2023-06-10T17:12:02;6.23;;;5.80;;
5878;SDS011;2965;42.640;23.370;2023-06-10T17:19:35;6.33;;;5.37;;
5878;SDS011;2965;42.640;23.370;2023-06-10T17:22:01;5.90;;;5.40;;
5878;SDS011;2965;42.640;23.370;2023-06-10T17:24:26;5.73;;;4.97;;
5878;SDS011;2965;42.640;23.370;2023-06-10T17:26:52;5.63;;;5.33;;
5878;SDS011;2965;42.640;23.370;2023-06-10T17:29:18;4.93;;;4.37;;
5878;SDS011;2965;42.640;23.370;2023-06-10T17:31:43;6.80;;;5.03;;
5878;SDS011;2965;42.640;23.370;2023-06-10T17:34:08;6.23;;;5.67;;
5878;SDS011;2965;42.640;23.370;2023-06-10T17:36:34;7.73;;;4.93;;
5878;SDS011;2965;42.640;23.370;2023-06-10T17:38:59;6.73;;;4.90;;
5878;SDS011;2965;42.640;23.370;2023-06-10T17:41:24;15.73;;;4.77;;
5878;SDS011;2965;42.640;23.370;2023-06-10T17:43:51;7.00;;;5.20;;
5878;SDS011;2965;42.640;23.370;2023-06-10T17:46:16;11.30;;;5.17;;
5878;SDS011;2965;42.640;23.370;2023-06-10T17:48:41;6.07;;;5.00;;
5878;SDS011;2965;42.640;23.370;2023-06-10T17:51:07;6.93;;;5.43;;
5878;SDS011;2965;42.640;23.370;2023-06-10T17:53:32;23.23;;;5.90;;
5878;SDS011;2965;42.640;23.370;2023-06-10T17:55:58;5.37;;;4.93;;
5878;SDS011;2965;42.640;23.370;2023-06-10T17:58:23;5.77;;;5.20;;
5878;SDS011;2965;42.640;23.370;2023-06-10T18:00:48;6.50;;;5.07;;
5878;SDS011;2965;42.640;23.370;2023-06-10T18:03:14;9.57;;;6.00;;
5878;SDS011;2965;42.640;23.370;2023-06-10T18:05:43;5.50;;;5.27;;
5878;SDS011;2965;42.640;23.370;2023-06-10T18:08:08;5.93;;;5.43;;
5878;SDS011;2965;42.640;23.370;2023-06-10T18:10:34;5.23;;;5.03;;
5878;SDS011;2965;42.640;23.370;2023-06-10T18:12:59;6.70;;;5.67;;
5878;SDS011;2965;42.640;23.370;2023-06-10T18:15:26;7.77;;;4.77;;
5878;SDS011;2965;42.640;23.370;2023-06-10T18:17:52;5.20;;;4.93;;
5878;SDS011;2965;42.640;23.370;2023-06-10T18:20:17;6.30;;;5.80;;
5878;SDS011;2965;42.640;23.370;2023-06-10T18:22:42;4.90;;;4.60;;
5878;SDS011;2965;42.640;23.370;2023-06-10T18:25:08;5.03;;;4.83;;
5878;SDS011;2965;42.640;23.370;2023-06-10T18:27:34;5.63;;;5.10;;
5878;SDS011;2965;42.640;23.370;2023-06-10T18:29:59;6.37;;;5.93;;
5878;SDS011;2965;42.640;23.370;2023-06-10T18:32:25;11.80;;;5.37;;
5878;SDS011;2965;42.640;23.370;2023-06-10T18:34:51;5.40;;;5.10;;
5878;SDS011;2965;42.640;23.370;2023-06-10T18:37:17;6.23;;;5.80;;
5878;SDS011;2965;42.640;23.370;2023-06-10T18:39:43;6.07;;;5.70;;
5878;SDS011;2965;42.640;23.370;2023-06-10T18:42:08;5.83;;;5.37;;
5878;SDS011;2965;42.640;23.370;2023-06-10T18:44:34;5.70;;;5.20;;
5878;SDS011;2965;42.640;23.370;2023-06-10T18:47:00;5.87;;;5.37;;
5878;SDS011;2965;42.640;23.370;2023-06-10T18:49:25;6.33;;;5.70;;
5878;SDS011;2965;42.640;23.370;2023-06-10T18:51:51;6.60;;;6.10;;
5878;SDS011;2965;42.640;23.370;2023-06-10T18:54:16;5.73;;;5.33;;
5878;SDS011;2965;42.640;23.370;2023-06-10T18:56:42;6.20;;;5.60;;
5878;SDS011;2965;42.640;23.370;2023-06-10T18:59:08;6.30;;;5.90;;
5878;SDS011;2965;42.640;23.370;2023-06-10T19:01:34;7.87;;;5.10;;
5878;SDS011;2965;42.640;23.370;2023-06-10T19:03:59;6.77;;;6.27;;
5878;SDS011;2965;42.640;23.370;2023-06-10T19:06:25;8.80;;;6.47;;
5878;SDS011;2965;42.640;23.370;2023-06-10T19:08:50;6.60;;;6.10;;
5878;SDS011;2965;42.640;23.370;2023-06-10T19:11:16;7.03;;;6.63;;
5878;SDS011;2965;42.640;23.370;2023-06-10T19:13:42;7.50;;;6.13;;
5878;SDS011;2965;42.640;23.370;2023-06-10T19:16:07;7.20;;;6.60;;
5878;SDS011;2965;42.640;23.370;2023-06-10T19:18:33;8.07;;;6.53;;
5878;SDS011;2965;42.640;23.370;2023-06-10T19:20:58;6.57;;;6.07;;
5878;SDS011;2965;42.640;23.370;2023-06-10T19:23:24;8.70;;;7.90;;
5878;SDS011;2965;42.640;23.370;2023-06-10T19:25:50;6.87;;;6.47;;
5878;SDS011;2965;42.640;23.370;2023-06-10T19:28:15;12.83;;;6.03;;
5878;SDS011;2965;42.640;23.370;2023-06-10T19:30:41;7.37;;;6.63;;
5878;SDS011;2965;42.640;23.370;2023-06-10T19:33:07;7.97;;;7.27;;
5878;SDS011;2965;42.640;23.370;2023-06-10T19:35:33;7.50;;;6.73;;
5878;SDS011;2965;42.640;23.370;2023-06-10T19:37:59;7.67;;;6.43;;
5878;SDS011;2965;42.640;23.370;2023-06-10T19:40:24;8.40;;;7.30;;
5878;SDS011;2965;42.640;23.370;2023-06-10T19:42:49;6.73;;;6.30;;
5878;SDS011;2965;42.640;23.370;2023-06-10T19:45:16;7.53;;;6.83;;
5878;SDS011;2965;42.640;23.370;2023-06-10T19:47:41;10.67;;;8.03;;
5878;SDS011;2965;42.640;23.370;2023-06-10T19:50:07;9.40;;;6.70;;
5878;SDS011;2965;42.640;23.370;2023-06-10T19:52:33;12.40;;;7.50;;
5878;SDS011;2965;42.640;23.370;2023-06-10T19:54:58;16.50;;;8.33;;
5878;SDS011;2965;42.640;23.370;2023-06-10T19:57:23;8.60;;;7.90;;
5878;SDS011;2965;42.640;23.370;2023-06-10T19:59:49;8.43;;;7.47;;